CheckWX is a tool to help pilots better visualize weather data.  It is not intended as a substitute for an official pre-flight weather briefing.

19:42:35 UTC

3D2 METAR
Ephraim-Gibraltar Airport
Ephraim, Wisconsin, USA
Current

8 mins ago

K3D2 211935Z AUTO 18010G16KT 10SM SCT013 BKN038 OVC047 22/19 A2993 RMK AO2 T02160192
Observed
Sep-21 @ 19:35 UTC
Wind
  • 180° at 10 KTS
  • Gusting to 16 KTS
Visibility
10 SM
Flight Rules
VFR
Cloud Levels
  • Scattered at 1,300' AGL
  • Broken at 3,800' AGL
  • Overcast at 4,700' AGL
Temperature
22°C / 72°F
Dewpoint
19°C / 66°F
Humidity
83%
Altimeter
29.93" Hg
Pressure
1013.52 hPa
Previous

28 mins ago

K3D2 211915Z AUTO 19009G14KT 160V220 10SM SCT029 BKN039 BKN050 22/19 A2993 RMK AO2 T02230193
Observed
Sep-21 @ 19:15 UTC
Wind
  • 190° at 9 KTS
  • Gusting to 14 KTS
Visibility
10 SM
Flight Rules
VFR
Cloud Levels
  • Scattered at 2,900' AGL
  • Broken at 3,900' AGL
  • Broken at 5,000' AGL
Temperature
22°C / 72°F
Dewpoint
19°C / 66°F
Humidity
83%
Altimeter
29.93" Hg
Pressure
1013.52 hPa
Previous

48 mins ago

K3D2 211855Z AUTO 19007G16KT 150V220 10SM SCT027 BKN037 BKN046 23/20 A2993 RMK AO2 T02260196
Observed
Sep-21 @ 18:55 UTC
Wind
  • 190° at 7 KTS
  • Gusting to 16 KTS
Visibility
10 SM
Flight Rules
VFR
Cloud Levels
  • Scattered at 2,700' AGL
  • Broken at 3,700' AGL
  • Broken at 4,600' AGL
Temperature
23°C / 73°F
Dewpoint
20°C / 68°F
Humidity
83%
Altimeter
29.93" Hg
Pressure
1013.52 hPa